This is the latest recevied weather packets stored in our database for station/object LU1DNQ-10. If no packets are shown the sender has not sent any weather packets the latest 10 day(s).
| Time | Temp. | Humidity | Pressure | Rain* | Wind** | Luminosity | Snow |
|---|---|---|---|---|---|---|---|
| 1778122038 | 29.44° C | 30% | 990 hPa | - | - | 0 W/m² | - |
| 1778121716 | 29.44° C | 30% | 990 hPa | - | - | 0 W/m² | - |
| 1778121394 | 30° C | 32% | 990 hPa | - | - | 0 W/m² | - |
| 1778121072 | 30° C | 33% | 990 hPa | - | - | 0 W/m² | - |
| 1778120750 | 30.56° C | 37% | 990 hPa | - | - | 0 W/m² | - |
| 1778120428 | 30.56° C | 42% | 990 hPa | - | - | 0 W/m² | - |
| 1778120106 | 30.56° C | 44% | 991 hPa | - | - | 0 W/m² | - |
| 1778119784 | 30° C | 44% | 991 hPa | - | - | 0 W/m² | - |
| 1778119462 | 29.44° C | 42% | 991 hPa | - | - | 0 W/m² | - |
| 1778119140 | 28.89° C | 38% | 990 hPa | - | - | 0 W/m² | - |
| 1778118818 | 28.33° C | 31% | 991 hPa | - | - | 0 W/m² | - |
| 1778118496 | 28.89° C | 32% | 991 hPa | - | - | 0 W/m² | - |
| 1778118174 | 28.89° C | 32% | 990 hPa | - | - | 0 W/m² | - |
| 1778117852 | 28.89° C | 32% | 991 hPa | - | - | 0 W/m² | - |
| 1778117530 | 28.89° C | 32% | 990 hPa | - | - | 0 W/m² | - |
| 1778117208 | 28.89° C | 32% | 991 hPa | - | - | 0 W/m² | - |
| 1778116886 | 29.44° C | 33% | 991 hPa | - | - | 0 W/m² | - |
| 1778116565 | 29.44° C | 32% | 990 hPa | - | - | 0 W/m² | - |
| 1778116243 | 30° C | 33% | 990 hPa | - | - | 0 W/m² | - |
| 1778115921 | 30° C | 35% | 990 hPa | - | - | 0 W/m² | - |
| 1778115598 | 30.56° C | 37% | 990 hPa | - | - | 0 W/m² | - |
| 1778115276 | 30.56° C | 42% | 990 hPa | - | - | 0 W/m² | - |
| 1778114955 | 30.56° C | 46% | 990 hPa | - | - | 0 W/m² | - |
| 1778114632 | 30° C | 45% | 990 hPa | - | - | 0 W/m² | - |
| 1778114310 | 29.44° C | 44% | 990 hPa | - | - | 0 W/m² | - |
* Rain since midnight (hover to see other rain measurements)
** Current wind speed in m/s (hover to see current wind gust speed)